Accueil
METAR-TAF:

METAR-TAF

Aéroports :

Aéroport de Bologne-Borgo Panigale

Bologne, Italie

latitude: 44-32N, longitude: 011-18E, altitude: 36 m

Observation

Le bulletin a été fait il y a 38 minutes, à 09:20 UTC
Vent 3 kt de direction variable
Température 20°C
Humidité 53%
Pression 1017 hPa
Visibilité 10 km ou plus
pas de nuages en-dessous de 1500 mètres et pas de cumulonimbus.

METAR: LIPE 300920Z VRB03KT CAVOK 20/10 Q1017

Heure: 11:58 (09:58 UTC)

Prévision

Le bulletin a été fait il y a 4 heures et 58 minutes, à 05:00 UTC
Prévision valable du 30 à 06 UTC au 31 à 06 UTC
Vent 5 kt de direction variable
Visibilité 10 km ou plus
Nuages épars à une hauteur de 4000 ft
Evoluant progressivement
du 30 à 10 UTC au 30 à 12 UTC
Vent 10 kt de est
Evoluant progressivement
du 30 à 17 UTC au 30 à 19 UTC
Vent 5 kt de direction variable

TAF: LIPE 300500Z 3006/3106 VRB05KT 9999 SCT040 BECMG 3010/3012 10010KT BECMG 3017/3019 VRB05KT

Observations et prévisions météorologiques de plus de 4000 aéroports (messages METAR et TAF).

Les stations disponibles sont représentées par des disques jaunes et rouges sur la carte.

Passer la souris dessus pour voir le nom de la station.

Cliquer dessus pour voir les observations et prévisions météorologiques.

Pour changer de carte: cliquez sur les boutons verts avec une croix noire pour zoomer, sur le bouton vert avec un tiret pour effectuer un zoom arrière, ou sur les flèches vertes pour les cartes adjacentes.


METAR-TAF: